Tiempo atmosférico en la estación meteorológica de Cabrales, Asturias (458 m.)



Fecha
DESCASC
Temp. máxima en grados centígrados (hora)
DESCASC
Temp. mínima en grados centígrados (hora)
DESCASC
Temp. media en grados centígrados
DESCASC
Racha de viento máxima en m/sg (hora)
DESCASC
Velocidad máxima media en intervalos de 10 minutos(hora)
DESCASC
Precipitaciones diarias en mm
DESCASC
Precipitaciones de 00:00 a 06:00 en mm
DESCASC
Precipitaciones de 06:00 a 12:00 en mm
DESCASC
Precipitaciones de 12:00 a 18:00 en mm
DESCASC
Precipitaciones de 18:00 a 24:00 en mm
DESCASC
22-11-2020 16.2 (15:40) 7.5 (00:10) 11.9 5.83 (17:20) 4.17 (17:20) 0 0 0 0 0
21-11-2020 15.4 (15:00) 4.2 (09:10) 9.8 5.56 (02:10) 3.89 (17:10) 0 0 0 0 0
20-11-2020 13.5 (15:50) 5.2 (09:00) 9.3 7.78 (13:00) 5 (13:00) 0.2 0 0 0.2 0
19-11-2020 13.3 (00:00) 7.8 (00:00) 10.6 8.33 (07:00) 5.83 (07:00) 2.8 0.8 0.6 1.4 0
18-11-2020 22.3 (14:00) 13.3 (00:00) 17.8 7.22 (02:00) 4.17 (05:10) 0 0 0 0 0
17-11-2020 20.9 (16:00) 6.7 (00:00) 13.8 5 (19:20) 2.78 (14:40) 0 0 0 0 0
16-11-2020 15.3 (14:30) 7.9 (00:00) 11.6 6.39 (00:10) 4.72 (00:20) 0.2 0 0 0.2 0
15-11-2020 20 (11:00) 10.1 (00:00) 15.1 19.72 (02:40) 11.11 (08:20) 5 0 0 3 2
14-11-2020 21.3 (15:20) 9.9 (00:00) 15.6 17.78 (13:30) 10.28 (13:30) 0 0 0 0 0
13-11-2020 19.7 (14:40) 9.7 (00:00) 14.7 5.83 (16:40) 4.17 (16:40) 0 0 0 0 0
12-11-2020 19.7 (14:40) 12.4 (00:00) 16.1 7.5 (17:20) 5.83 (17:30) 0 0 0 0 0
11-11-2020 18.5 (15:10) 7.9 (00:00) 13.2 6.39 (22:10) 4.17 (17:10) 0 0 0 0 0
10-11-2020 16.1 (14:00) 8.6 (00:00) 12.4 6.11 (17:00) 3.89 (16:50) 0.2 0 0.2 0 0
09-11-2020 19 (11:50) 10.5 (00:00) 14.8 12.78 (04:30) 7.78 (04:30) 4.8 0 0 2.4 2.4
08-11-2020 20.6 (13:30) 13.8 (00:00) 17.2 23.89 (16:00) 14.17 (14:10) 0 0 0 0 0
07-11-2020 19.4 (15:40) 11.8 (00:00) 15.6 18.61 (23:50) 10.28 (23:40) 1.4 1.4 0 0 0
06-11-2020 20.5 (13:30) 11.5 (00:00) 16 26.94 (22:30) 14.17 (22:30) 3.4 0 0.4 0 3
05-11-2020 11.5 (13:10) 6.2 (00:00) 8.8 14.44 (00:50) 9.44 (00:30) 0 0 0 0 0
04-11-2020 10.9 (13:40) 5.3 (00:00) 8.1 14.44 (14:00) 8.89 (14:00) 1.6 0.6 0.6 0.2 0.2
03-11-2020 9.7 (11:30) 5.6 (00:00) 7.6 9.17 (08:50) 6.39 (12:50) 6.6 0.4 1.2 3.4 1.6
02-11-2020 20.8 (11:40) 9.3 (00:00) 15 13.89 (12:20) 9.17 (14:40) 4 0 0 0.4 3.6
01-11-2020 23.2 (13:40) 16 (00:00) 19.6 6.67 (13:10) 4.17 (13:20) 0 0 0 0 0
31-10-2020 22.7 (16:10) 9.8 (00:00) 16.3 7.22 (08:20) 5 (07:40) 0 0 0 0 0
30-10-2020 18.8 (15:00) 7 (00:00) 12.9 5.28 (19:00) 4.17 (18:40) 0.2 0 0.2 0 0
29-10-2020 18.2 (14:20) 8.2 (00:00) 13.2 6.11 (05:40) 4.72 (06:10) 0 0 0 0 0
28-10-2020 16.4 (15:20) 10.4 (00:00) 13.4 6.94 (13:40) 4.72 (13:50) 0.4 0.4 0 0 0

Gráficas

Temp. máximas Temp. mínimas Temp. medias Precipitaciones Rachas de viento máximas Velocidades máximas media en intervalos de 10 minutos

Datos horarios

Fecha y hora oficial Temperatura (ºC) Velocidad del viento (km/h) Dirección del viento Racha (km/h) Dirección de racha Precipitación (mm) Presión (hPa) Tendencia (hPa) Humedad (%)
2020-11-26 23:00:00 10.4 9 Sudeste 12 Este 0 -- -- 81
2020-11-26 22:00:00 11.3 0 Calma 5 Sur 0 -- -- 76
2020-11-26 21:00:00 11.3 2 Sudeste 5 Nordeste 0 -- -- 75
2020-11-26 20:00:00 12 0 Calma 5 Sudeste 0 -- -- 77
2020-11-26 19:00:00 12.5 0 Calma 5 Este 0 -- -- 76
2020-11-26 18:00:00 13.6 3 Sudoeste 8 Sudeste 0 -- -- 69
2020-11-26 17:00:00 14.8 5 Sudeste 10 Este 0 -- -- 64
2020-11-26 16:00:00 16.1 5 Sudeste 8 Sudeste 0 -- -- 60
2020-11-26 15:00:00 16.8 4 Sudeste 9 Sudoeste 0 -- -- 61
2020-11-26 14:00:00 16.5 3 Sudoeste 13 Sudeste 0 -- -- 63
2020-11-26 13:00:00 15.5 6 Sudeste 10 Este 0 -- -- 65
2020-11-26 12:00:00 13.1 6 Sudeste 8 Sudeste 0 -- -- 79
2020-11-26 11:00:00 11.6 2 Este 6 Oeste 0 -- -- 79
2020-11-26 10:00:00 10.6 3 Este 9 Sudoeste 0 -- -- 80
2020-11-26 09:00:00 9.1 5 Sudoeste 9 Este 0 -- -- 87
2020-11-26 08:00:00 8.9 0 Calma 11 Sudeste 0 -- -- 88
2020-11-26 07:00:00 9 8 Sudeste 12 Sudeste 0 -- -- 89
2020-11-26 06:00:00 8.4 6 Sudeste 9 Sudeste 0 -- -- 94
2020-11-26 05:00:00 8.2 0 Calma 6 Sur 0 -- -- 97
2020-11-26 04:00:00 7.9 5 Este 9 Este 0 -- -- 99
2020-11-26 03:00:00 8.1 3 Sudoeste 13 Sudeste 0 -- -- 100
2020-11-26 02:00:00 8.3 8 Este 14 Sudeste 0 -- -- 99
2020-11-26 01:00:00 8.5 4 Este 11 Sudoeste 0 -- -- 99
2020-11-26 00:00:00 9 2 Sudeste 6 Sudoeste 0 -- -- 98
2020-11-25 23:00:00 9.3 3 Este 9 Oeste 0 -- -- 97
2020-11-25 22:00:00 9.3 6 Oeste 10 Oeste 0 -- -- 97
2020-11-25 21:00:00 9.9 2 Sur 6 Oeste 0 -- -- 96
2020-11-25 20:00:00 9.9 3 Este 8 Sudeste 0 -- -- 95
2020-11-25 19:00:00 10.1 5 Sudeste 14 Sudeste 0 -- -- 94
2020-11-25 18:00:00 10.8 8 Sudeste 17 Este 0 -- -- 91
2020-11-25 17:00:00 12.2 10 Este 18 Sudeste 0 -- -- 87
2020-11-25 16:00:00 13.2 3 Sudeste 7 Sudeste 0 -- -- 83
2020-11-25 15:00:00 13.2 2 Sudoeste 6 Sudoeste 0 -- -- 83
2020-11-25 14:00:00 13.2 2 Nordeste 5 Sudoeste 0 -- -- 83
2020-11-25 13:00:00 12.8 0 Calma 6 Sudoeste 0 -- -- 86
2020-11-25 12:00:00 12.2 4 Sudoeste 10 Este 0 -- -- 86
2020-11-25 11:00:00 11.3 4 Sudeste 7 Sudeste 0 -- -- 85
2020-11-25 10:00:00 10.5 3 Sudoeste 10 Sudoeste 0 -- -- 94
2020-11-25 09:00:00 10.3 10 Sudoeste 13 Sudoeste 0 -- -- 92
2020-11-25 08:00:00 10.3 3 Noroeste 13 Oeste 0 -- -- 86
2020-11-25 07:00:00 10.4 9 Sudoeste 14 Sudoeste 0 -- -- 81
2020-11-25 06:00:00 11.1 10 Oeste 15 Oeste 0 -- -- 66
2020-11-25 05:00:00 10.8 9 Sudeste 15 Este 0 -- -- 65
2020-11-25 04:00:00 11.3 5 Nordeste 17 Sudeste 0 -- -- 61
2020-11-25 03:00:00 10.7 9 Este 21 Sur 0 -- -- 64
2020-11-25 02:00:00 11.4 9 Sudeste 30 Sudoeste 0 -- -- 62
2020-11-25 01:00:00 9.2 12 Este 20 Este 0 -- -- 73
2020-11-25 00:00:00 8.2 5 Nordeste 10 Nordeste 0 -- -- 81
2020-11-24 23:00:00 8.1 3 Sudeste 8 Nordeste 0 -- -- 86
2020-11-24 22:00:00 8.8 2 Sudoeste 8 Sudoeste 0 -- -- 84
2020-11-24 21:00:00 8.7 2 Sudoeste 17 Sudeste 0 -- -- 86
2020-11-24 20:00:00 9.2 7 Sudeste 16 Sudeste 0 -- -- 85
2020-11-24 19:00:00 9.3 14 Sudeste 17 Sudeste 0 -- -- 86
2020-11-24 18:00:00 10.3 12 Sudeste 14 Sudeste 0 -- -- 83
2020-11-24 17:00:00 11.8 10 Sudeste 14 Sudeste 0 -- -- 77
2020-11-24 16:00:00 13.9 8 Sudeste 15 Sur 0 -- -- 68
2020-11-24 15:00:00 15 10 Sudeste 17 Sudeste 0 -- -- 63
2020-11-24 14:00:00 15.3 8 Sudeste 15 Sudeste 0 -- -- 61
2020-11-24 13:00:00 15 8 Sudeste 11 Sudeste 0 -- -- 56
2020-11-24 12:00:00 14.2 6 Sudoeste 13 Sudoeste 0 -- -- 65
2020-11-24 11:00:00 11.4 10 Oeste 13 Oeste 0 -- -- 60
2020-11-24 10:00:00 10.9 0 Calma 4 Sudeste 0 -- -- 57
2020-11-24 09:00:00 10.4 0 Calma 5 Sudoeste 0 -- -- 55
2020-11-24 08:00:00 10.7 2 Este 4 Sudeste 0 -- -- 56
2020-11-24 07:00:00 11 4 Oeste 8 Oeste 0 -- -- 57
2020-11-24 06:00:00 11.1 3 Oeste 10 Oeste 0 -- -- 58
2020-11-24 05:00:00 10.6 3 Oeste 9 Oeste 0 -- -- 63
2020-11-24 04:00:00 10.2 2 Sudoeste 10 Oeste 0 -- -- 64
2020-11-24 03:00:00 9.6 5 Oeste 10 Oeste 0 -- -- 69
2020-11-24 02:00:00 9.4 5 Oeste 8 Oeste 0 -- -- 71
2020-11-24 01:00:00 8.9 3 Oeste 4 Oeste 0 -- -- 77
2020-11-24 00:00:00 9 0 Calma 5 Sudoeste 0 -- -- 77
2020-11-23 23:00:00 8.8 0 Calma 3 Sudoeste 0 -- -- 81
2020-11-23 22:00:00 9.2 0 Calma 2 Sudoeste 0 -- -- 81
2020-11-23 21:00:00 9.2 3 Oeste 6 Sudeste 0 -- -- 78
2020-11-23 20:00:00 9.6 4 Sudeste 9 Sudeste 0 -- -- 82
2020-11-23 19:00:00 10.1 5 Sudeste 12 Este 0 -- -- 79
2020-11-23 18:00:00 10.9 7 Sudeste 17 Sudeste 0 -- -- 70
2020-11-23 17:00:00 12.5 12 Sudeste 17 Sudeste 0 -- -- 60
2020-11-23 16:00:00 14.5 10 Sudeste 15 Sudeste 0 -- -- 56
2020-11-23 15:00:00 15.3 10 Sudeste 16 Sudeste 0 -- -- 50
2020-11-23 14:00:00 15.5 7 Sudeste 12 Sudeste 0 -- -- 52
2020-11-23 13:00:00 15 7 Sudeste 10 Sudeste 0 -- -- 55
2020-11-23 12:00:00 12.5 6 Sudoeste 9 Sudoeste 0 -- -- 59
2020-11-23 11:00:00 9.9 3 Sudoeste 8 Sudeste 0 -- -- 71
2020-11-23 10:00:00 6.9 6 Sudeste 13 Sudeste 0 -- -- 82
2020-11-23 09:00:00 5.8 4 Este 6 Este 0 -- -- 84
2020-11-23 08:00:00 6.1 2 Este 5 Sudeste 0 -- -- 81
2020-11-23 07:00:00 5.8 4 Este 7 Sudeste 0 -- -- 86
2020-11-23 06:00:00 6.1 4 Este 11 Este 0 -- -- 87
2020-11-23 05:00:00 6.3 9 Este 11 Sudeste 0 -- -- 86
2020-11-23 04:00:00 7.2 2 Sur 10 Sur 0 -- -- 83
2020-11-23 03:00:00 7.3 6 Este 8 Este 0 -- -- 84
2020-11-23 02:00:00 8 0 Calma 5 Este 0 -- -- 81
2020-11-23 01:00:00 8.7 0 Calma 4 Este 0 -- -- 80
2020-11-23 00:00:00 9.4 0 Calma 2 Noroeste 0 -- -- 76
2020-11-22 23:00:00 9.7 0 Calma 4 Sudeste 0 -- -- 76
2020-11-22 22:00:00 10.3 2 Sudeste 5 Oeste 0 -- -- 77
2020-11-22 21:00:00 10.4 0 Calma 3 Oeste 0 -- -- 77
2020-11-22 20:00:00 10.8 4 Oeste 6 Sudoeste 0 -- -- 79
2020-11-22 19:00:00 11.9 0 Calma 10 Noroeste 0 -- -- 74
2020-11-22 18:00:00 12.5 10 Noroeste 21 Noroeste 0 -- -- 73
2020-11-22 17:00:00 13.8 13 Oeste 20 Oeste 0 -- -- 63
2020-11-22 16:00:00 15.8 13 Noroeste 18 Noroeste 0 -- -- 63
2020-11-22 15:00:00 15.7 3 Norte 10 Noroeste 0 -- -- 60
2020-11-22 14:00:00 15.7 9 Noroeste 14 Oeste 0 -- -- 64
2020-11-22 13:00:00 15.3 6 Noroeste 9 Oeste 0 -- -- 60
2020-11-22 12:00:00 14.9 3 Oeste 7 Sudoeste 0 -- -- 60
2020-11-22 11:00:00 12.3 3 Sudoeste 4 Oeste 0 -- -- 70
2020-11-22 10:00:00 9.7 4 Oeste 8 Oeste 0 -- -- 74
2020-11-22 09:00:00 8.6 0 Calma 5 Oeste 0 -- -- 75
2020-11-22 08:00:00 8.8 4 Oeste 6 Oeste 0 -- -- 73
2020-11-22 07:00:00 8.6 5 Oeste 7 Oeste 0 -- -- 74
2020-11-22 06:00:00 8.9 3 Oeste 6 Sudoeste 0 -- -- 77
2020-11-22 05:00:00 9 5 Oeste 14 Oeste 0 -- -- 74
2020-11-22 04:00:00 9.1 5 Oeste 9 Oeste 0 -- -- 74
2020-11-22 03:00:00 8.4 8 Oeste 12 Oeste 0 -- -- 76
2020-11-22 02:00:00 8.6 9 Oeste 12 Oeste 0 -- -- 75
2020-11-22 01:00:00 8.4 0 Calma 6 Oeste 0 -- -- 78
2020-11-22 00:00:00 7.6 0 Calma 4 Sudoeste 0 -- -- 85
2020-11-21 23:00:00 7.5 0 Calma 4 Sudoeste 0 -- -- 87
2020-11-21 22:00:00 7.2 2 Sudoeste 5 Sur 0 -- -- 88
2020-11-21 21:00:00 7.2 3 Sur 9 Sudeste 0 -- -- 90
2020-11-21 20:00:00 7.8 6 Sudeste 11 Sudeste 0 -- -- 86
2020-11-21 19:00:00 8.8 8 Sudeste 10 Sudeste 0 -- -- 81
2020-11-21 18:00:00 9.8 6 Sudeste 18 Sudeste 0 -- -- 76
2020-11-21 17:00:00 11.9 12 Sudeste 15 Sudeste 0 -- -- 62
2020-11-21 16:00:00 14.6 0 Calma 10 Oeste 0 -- -- 57
2020-11-21 15:00:00 15.4 5 Sudoeste 11 Oeste 0 -- -- 52
2020-11-21 14:00:00 14.4 3 Nordeste 9 Sudeste 0 -- -- 50
2020-11-21 13:00:00 13.7 4 Sudeste 8 Sudeste 0 -- -- 59
2020-11-21 12:00:00 12.2 4 Sudoeste 9 Sudeste 0 -- -- 73
2020-11-21 11:00:00 9.3 4 Sudoeste 6 Sudoeste 0 -- -- 85
2020-11-21 10:00:00 5.3 5 Sudoeste 9 Este 0 -- -- 99
2020-11-21 09:00:00 4.4 9 Sudeste 15 Sudeste 0 -- -- 98
2020-11-21 08:00:00 4.6 4 Este 6 Este 0 -- -- 96
2020-11-21 07:00:00 5.1 4 Sudoeste 7 Sudoeste 0 -- -- 98
2020-11-21 06:00:00 4.9 5 Sudeste 9 Este 0 -- -- 96
2020-11-21 05:00:00 5.9 0 Calma 7 Oeste 0 -- -- 94
2020-11-21 04:00:00 5.9 2 Sudoeste 8 Sudoeste 0 -- -- 99
2020-11-21 03:00:00 5.3 4 Sudeste 20 Sudeste 0 -- -- 100
2020-11-21 02:00:00 5.3 11 Sudeste 15 Este 0 -- -- 99
2020-11-21 01:00:00 6.2 9 Sudeste 15 Sudeste 0 -- -- 99
2020-11-21 00:00:00 6 6 Este 13 Este 0 -- -- 98
2020-11-20 23:00:00 6.5 6 Sudeste 20 Sudeste 0 -- -- 96
2020-11-20 22:00:00 6.9 15 Sudeste 20 Sudeste 0 -- -- 97
2020-11-20 21:00:00 7.4 15 Sudeste 22 Sudeste 0 -- -- 96
2020-11-20 20:00:00 7.7 9 Sudeste 23 Sudeste 0 -- -- 94
2020-11-20 19:00:00 8.1 10 Sudeste 18 Este 0 -- -- 92
2020-11-20 18:00:00 8.6 9 Sudeste 23 Sudeste 0 -- -- 88
2020-11-20 17:00:00 10 11 Este 28 Este 0 -- -- 83
2020-11-20 16:00:00 13.3 8 Sudeste 13 Sudeste 0 -- -- 66
2020-11-20 15:00:00 13.3 6 Sudeste 17 Sudeste 0.2 -- -- 66
2020-11-20 14:00:00 12.8 10 Sudeste 26 Sudeste 0 -- -- 72
2020-11-20 13:00:00 11.7 18 Sudeste 28 Sudeste 0 -- -- 75
2020-11-20 12:00:00 11 10 Sudeste 22 Sudeste 0 -- -- 81
2020-11-20 11:00:00 8.6 10 Sudeste 14 Sudeste 0 -- -- 100
2020-11-20 10:00:00 6.1 0 Calma 4 Sur 0 -- -- 100
2020-11-20 09:00:00 5.2 4 Este 6 Este 0 -- -- 100
2020-11-20 08:00:00 5.6 3 Sudoeste 6 Sudeste 0 -- -- 100
2020-11-20 07:00:00 5.7 3 Este 5 Sudoeste 0 -- -- 100
2020-11-20 06:00:00 6 3 Sudoeste 10 Sudeste 0 -- -- 100
2020-11-20 05:00:00 6.4 6 Este 9 Este 0 -- -- 100
2020-11-20 04:00:00 6.6 9 Sudeste 12 Este 0 -- -- 100
2020-11-20 03:00:00 7.6 4 Sur 10 Sudeste 0 -- -- 100
2020-11-20 02:00:00 7.9 8 Sudeste 14 Sudeste 0 -- -- 100
2020-11-20 01:00:00 8 10 Sudeste 18 Este 0 -- -- 100
2020-11-20 00:00:00 7.9 6 Sudeste 12 Sudeste 0 -- -- 100
2020-11-19 23:00:00 7.9 11 Sudeste 16 Sudeste 0 -- -- 100
2020-11-19 22:00:00 8.3 10 Este 25 Sudeste 0 -- -- 100
2020-11-19 21:00:00 8.5 10 Sudeste 15 Sudeste 0 -- -- 100
2020-11-19 20:00:00 8.6 6 Sudeste 15 Sudeste 0 -- -- 100
2020-11-19 19:00:00 8.9 10 Sudeste 19 Este 0 -- -- 100
2020-11-19 18:00:00 9.6 6 Este 20 Este 0 -- -- 100
2020-11-19 17:00:00 10.3 6 Sudeste 13 Sudeste 0.2 -- -- 100
2020-11-19 16:00:00 10.3 8 Sudoeste 12 Oeste 1.2 -- -- 100
2020-11-19 15:00:00 10.7 10 Sudoeste 14 Sudoeste 0 -- -- 100
2020-11-19 14:00:00 12.1 3 Norte 8 Sudoeste 0 -- -- 100
2020-11-19 13:00:00 11.4 6 Oeste 10 Oeste 0 -- -- 100
2020-11-19 12:00:00 10.8 6 Oeste 15 Oeste 0.2 -- -- 100
2020-11-19 11:00:00 10.5 11 Sudoeste 16 Oeste 0 -- -- 100
2020-11-19 10:00:00 10.4 9 Oeste 19 Oeste 0.2 -- -- 100
2020-11-19 09:00:00 10.4 17 Sudoeste 27 Oeste 0 -- -- 100
2020-11-19 08:00:00 10.9 16 Oeste 27 Oeste 0 -- -- 100
2020-11-19 07:00:00 11.6 21 Oeste 30 Oeste 0.2 -- -- 100
2020-11-19 06:00:00 12.3 10 Oeste 15 Oeste 0 -- -- 100
2020-11-19 05:00:00 12.3 8 Oeste 17 Oeste 0.4 -- -- 99
2020-11-19 04:00:00 12.6 12 Oeste 20 Oeste 0.4 -- -- 96
2020-11-19 03:00:00 13.3 10 Noroeste 17 Oeste 0 -- -- 87
2020-11-19 02:00:00 12.6 16 Oeste 19 Oeste 0 -- -- 84
2020-11-19 01:00:00 12.7 5 Noroeste 18 Oeste 0 -- -- 82
2020-11-19 00:00:00 13.3 12 Oeste 19 Oeste 0 -- -- 76
2020-11-18 23:00:00 13.8 4 Sudoeste 6 Sudoeste 0 -- -- 73
2020-11-18 22:00:00 13.8 5 Oeste 6 Oeste 0 -- -- 73
2020-11-18 21:00:00 13.8 2 Noroeste 6 Sudeste 0 -- -- 73
2020-11-18 20:00:00 13.9 4 Este 9 Sudeste 0 -- -- 74
2020-11-18 19:00:00 14.8 8 Sudeste 16 Este 0 -- -- 69
2020-11-18 18:00:00 15.9 12 Este 19 Este 0 -- -- 67
2020-11-18 17:00:00 18.4 2 Sudoeste 16 Sudoeste 0 -- -- 55
2020-11-18 16:00:00 20.9 10 Sudoeste 14 Sudoeste 0 -- -- 50
2020-11-18 15:00:00 21.9 7 Oeste 11 Oeste 0 -- -- 51
2020-11-18 14:00:00 22.3 5 Sur 11 Sudeste 0 -- -- 49
2020-11-18 13:00:00 21.7 5 Sudeste 9 Sudeste 0 -- -- 49
2020-11-18 12:00:00 20.8 3 Sudoeste 6 Sudoeste 0 -- -- 56
2020-11-18 11:00:00 18.2 6 Sudoeste 12 Sudoeste 0 -- -- 58
2020-11-18 10:00:00 15.3 3 Este 9 Nordeste 0 -- -- 64
2020-11-18 09:00:00 14.2 3 Sudoeste 16 Este 0 -- -- 62
2020-11-18 08:00:00 14.4 5 Este 18 Sudeste 0 -- -- 63
2020-11-18 07:00:00 14.8 9 Este 18 Sudeste 0 -- -- 60
2020-11-18 06:00:00 15.6 5 Este 22 Sudeste 0 -- -- 55
2020-11-18 05:00:00 15.3 14 Sudeste 21 Sudeste 0 -- -- 56
2020-11-18 04:00:00 16.6 14 Sudeste 23 Sur 0 -- -- 51
2020-11-18 03:00:00 15.2 9 Este 18 Sudeste 0 -- -- 54
2020-11-18 02:00:00 15.7 12 Sudeste 26 Sudeste 0 -- -- 53
2020-11-18 01:00:00 15.1 8 Este 15 Sur 0 -- -- 54
2020-11-18 00:00:00 15.3 7 Sudeste 14 Sudeste 0 -- -- 52
2020-11-17 23:00:00 14.5 4 Este 12 Este 0 -- -- 56
2020-11-17 22:00:00 14.3 5 Este 10 Sudeste 0 -- -- 60
2020-11-17 21:00:00 13.8 5 Este 11 Sudoeste 0 -- -- 65
2020-11-17 20:00:00 14.4 4 Este 18 Sudoeste 0 -- -- 62
2020-11-17 19:00:00 15.3 2 Este 10 Oeste 0 -- -- 57
2020-11-17 18:00:00 16.4 4 Este 8 Este 0 -- -- 56
2020-11-17 17:00:00 18.8 3 Sudoeste 8 Sudeste 0 -- -- 48
2020-11-17 16:00:00 20.9 4 Sudoeste 9 Sudeste 0 -- -- 50
2020-11-17 15:00:00 20.7 5 Sur 13 Sudeste 0 -- -- 52
2020-11-17 14:00:00 19.6 2 Sudeste 9 Sudoeste 0 -- -- 53
2020-11-17 13:00:00 19 4 Sudeste 6 Sudoeste 0 -- -- 58
2020-11-17 12:00:00 17.2 0 Calma 5 Sudoeste 0 -- -- 62
2020-11-17 11:00:00 14.4 0 Calma 5 Sudeste 0 -- -- 67
2020-11-17 10:00:00 11.1 0 Calma 4 Sudoeste 0 -- -- 71
2020-11-17 09:00:00 9.1 4 Este 6 Este 0 -- -- 78
2020-11-17 08:00:00 9.3 0 Calma 4 Sudeste 0 -- -- 75
2020-11-17 07:00:00 8.8 0 Calma 8 Este 0 -- -- 80
2020-11-17 06:00:00 8.3 3 Nordeste 7 Este 0 -- -- 85
2020-11-17 05:00:00 7.4 0 Calma 6 Este 0 -- -- 95
2020-11-17 04:00:00 7.3 0 Calma 10 Sudeste 0 -- -- 99
2020-11-17 03:00:00 6.8 4 Este 9 Sudeste 0 -- -- 99
2020-11-17 02:00:00 6.9 5 Este 7 Este 0 -- -- 98
2020-11-17 01:00:00 7.5 3 Este 4 Este 0 -- -- 98
2020-11-17 00:00:00 7.9 2 Este 5 Sudeste 0 -- -- 96
2020-11-16 23:00:00 8.1 3 Oeste 5 Sudoeste 0 -- -- 97
2020-11-16 22:00:00 8.1 0 Calma 8 Sudeste 0 -- -- 97
2020-11-16 21:00:00 8.4 6 Sudeste 12 Este 0 -- -- 95
2020-11-16 20:00:00 8.7 6 Sudeste 14 Este 0 -- -- 94
2020-11-16 19:00:00 9 12 Sudeste 18 Este 0 -- -- 91
2020-11-16 18:00:00 10.2 9 Sudeste 15 Sudeste 0 -- -- 85
2020-11-16 17:00:00 12.1 9 Sudeste 15 Sudeste 0 -- -- 78
2020-11-16 16:00:00 14.1 7 Sudeste 17 Sudeste 0 -- -- 72
2020-11-16 15:00:00 15 5 Sudeste 12 Sudeste 0.2 -- -- 70
2020-11-16 14:00:00 15 4 Sur 9 Oeste 0 -- -- 71
2020-11-16 13:00:00 14.1 5 Sudeste 9 Sudeste 0 -- -- 73
2020-11-16 12:00:00 12.5 4 Sudoeste 6 Sudoeste 0 -- -- 81
2020-11-16 11:00:00 11.7 0 Calma 5 Sudoeste 0 -- -- 91
2020-11-16 10:00:00 10 3 Sudoeste 8 Oeste 0 -- -- 93
2020-11-16 09:00:00 9.6 5 Sudeste 7 Sudeste 0 -- -- 92
2020-11-16 08:00:00 9.8 5 Sudeste 6 Sudeste 0 -- -- 86
2020-11-16 07:00:00 9.9 0 Calma 4 Norte 0 -- -- 87
2020-11-16 06:00:00 9.7 2 Norte 15 Noroeste 0 -- -- 91
2020-11-16 05:00:00 10 12 Noroeste 18 Noroeste 0 -- -- 95
2020-11-16 04:00:00 10.1 12 Noroeste 15 Noroeste 0 -- -- 96
2020-11-16 03:00:00 10 8 Noroeste 10 Noroeste 0 -- -- 98
2020-11-16 02:00:00 10 12 Noroeste 20 Noroeste 0 -- -- 100
2020-11-16 01:00:00 10 14 Noroeste 23 Noroeste 0 -- -- 100
2020-11-16 00:00:00 10.2 17 Noroeste 23 Noroeste 0 -- -- 100
2020-11-15 23:00:00 10.2 13 Noroeste 21 Noroeste 0 -- -- 100
2020-11-15 22:00:00 10.2 11 Noroeste 24 Noroeste 0 -- -- 100
2020-11-15 21:00:00 10.1 18 Noroeste 23 Noroeste 0 -- -- 100
2020-11-15 20:00:00 10.3 11 Noroeste 34 Norte 0.6 -- -- 100
2020-11-15 19:00:00 10.9 26 Noroeste 37 Norte 1.4 -- -- 100
2020-11-15 18:00:00 11.9 19 Noroeste 30 Norte 1.8 -- -- 100
2020-11-15 17:00:00 12.4 15 Noroeste 25 Noroeste 1.2 -- -- 100
2020-11-15 16:00:00 13 9 Noroeste 23 Oeste 0 -- -- 98
2020-11-15 15:00:00 13.4 16 Oeste 23 Oeste 0 -- -- 96
2020-11-15 14:00:00 14 14 Oeste 27 Oeste 0 -- -- 93
2020-11-15 13:00:00 15.3 19 Oeste 29 Oeste 0 -- -- 90
2020-11-15 12:00:00 17 22 Oeste 32 Sudoeste 0 -- -- 74
2020-11-15 11:00:00 20 8 Norte 25 Noroeste 0 -- -- 58
2020-11-15 10:00:00 19.7 9 Sudoeste 35 Sur 0 -- -- 55
2020-11-15 09:00:00 18.9 11 Nordeste 60 Sur 0 -- -- 57
2020-11-15 08:00:00 19.4 17 Sur 41 Sudoeste 0 -- -- 52
2020-11-15 07:00:00 19.1 14 Sudoeste 41 Sudoeste 0 -- -- 52
2020-11-15 06:00:00 17.7 7 Oeste 23 Sur 0 -- -- 57
2020-11-15 05:00:00 18.3 18 Sudoeste 47 Sur 0 -- -- 58
2020-11-15 04:00:00 19.1 16 Sudoeste 65 Oeste 0 -- -- 54
2020-11-15 03:00:00 19.5 27 Sudoeste 71 Sudoeste 0 -- -- 53
2020-11-15 02:00:00 18.2 13 Oeste 46 Sudoeste 0 -- -- 55
2020-11-15 01:00:00 16.7 10 Sur 26 Sudoeste 0 -- -- 58
2020-11-15 00:00:00 16.5 7 Oeste 55 Sudoeste 0 -- -- 53
2020-11-14 23:00:00 18.4 15 Sudoeste 42 Sudoeste 0 -- -- 47
2020-11-14 22:00:00 16.8 10 Sudeste 36 Sudoeste 0 -- -- 49
2020-11-14 21:00:00 15.5 10 Sudeste 43 Sudoeste 0 -- -- 60
2020-11-14 20:00:00 15.4 8 Este 17 Nordeste 0 -- -- 61
2020-11-14 19:00:00 17.2 6 Sudeste 46 Sudoeste 0 -- -- 56
2020-11-14 18:00:00 18.1 8 Sur 40 Sudoeste 0 -- -- 51
2020-11-14 17:00:00 19.2 25 Sudoeste 55 Sudoeste 0 -- -- 48
2020-11-14 16:00:00 20.8 21 Sudoeste 39 Oeste 0 -- -- 46
2020-11-14 15:00:00 20.8 18 Sudoeste 62 Sudoeste 0 -- -- 44
2020-11-14 14:00:00 21 30 Sudoeste 64 Sudoeste 0 -- -- 41
2020-11-14 13:00:00 20.5 25 Sudoeste 52 Oeste 0 -- -- 41
2020-11-14 12:00:00 18.7 8 Nordeste 15 Nordeste 0 -- -- 49
2020-11-14 11:00:00 17.2 8 Sudeste 21 Sudeste 0 -- -- 50
2020-11-14 10:00:00 14.4 7 Sudeste 17 Este 0 -- -- 60
2020-11-14 09:00:00 12.5 6 Sudeste 15 Sudeste 0 -- -- 57
2020-11-14 08:00:00 12.2 12 Sudeste 22 Este 0 -- -- 56
2020-11-14 07:00:00 12.1 16 Sudeste 21 Sudeste 0 -- -- 57
2020-11-14 06:00:00 11.5 12 Este 17 Este 0 -- -- 61
2020-11-14 05:00:00 11.6 3 Este 14 Sudeste 0 -- -- 57
2020-11-14 04:00:00 11.2 5 Sudeste 13 Sudeste 0 -- -- 63
2020-11-14 03:00:00 10.8 4 Nordeste 8 Noroeste 0 -- -- 67
2020-11-14 02:00:00 11.1 3 Oeste 10 Oeste 0 -- -- 69
2020-11-14 01:00:00 10.4 7 Oeste 10 Oeste 0 -- -- 81
2020-11-14 00:00:00 9.9 4 Sudoeste 8 Este 0 -- -- 85
2020-11-13 23:00:00 10.8 2 Sudeste 8 Oeste 0 -- -- 81
2020-11-13 22:00:00 11 2 Noroeste 5 Noroeste 0 -- -- 77
2020-11-13 21:00:00 11.9 0 Calma 6 Oeste 0 -- -- 77
2020-11-13 20:00:00 12.4 0 Calma 5 Sudeste 0 -- -- 76
2020-11-13 19:00:00 13.4 0 Calma 9 Sudeste 0 -- -- 72
2020-11-13 18:00:00 13.3 8 Sudeste 18 Sudeste 0 -- -- 72
2020-11-13 17:00:00 15.7 13 Sudeste 21 Sudeste 0 -- -- 63
2020-11-13 16:00:00 19.1 7 Sudeste 12 Sudeste 0 -- -- 49
2020-11-13 15:00:00 18.9 2 Sur 12 Sudeste 0 -- -- 50
2020-11-13 14:00:00 19.3 8 Oeste 11 Oeste 0 -- -- 49
2020-11-13 13:00:00 19 4 Sur 7 Sur 0 -- -- 49
2020-11-13 12:00:00 17.3 4 Este 6 Sudeste 0 -- -- 60
2020-11-13 11:00:00 14.1 3 Nordeste 12 Sudoeste 0 -- -- 61
2020-11-13 10:00:00 12 0 Calma 8 Sudeste 0 -- -- 65
2020-11-13 09:00:00 10.9 6 Sudeste 17 Sudeste 0 -- -- 70
2020-11-13 08:00:00 10.9 3 Sur 9 Sudeste 0 -- -- 76
2020-11-13 07:00:00 11.6 5 Sudeste 11 Sur 0 -- -- 69
2020-11-13 06:00:00 12 5 Sudeste 8 Este 0 -- -- 74
2020-11-13 05:00:00 12.8 2 Oeste 5 Norte 0 -- -- 65
2020-11-13 04:00:00 13.2 3 Noroeste 13 Sudoeste 0 -- -- 65
2020-11-13 03:00:00 13.6 8 Oeste 18 Oeste 0 -- -- 67
2020-11-13 02:00:00 13.7 13 Oeste 20 Oeste 0 -- -- 65
2020-11-13 01:00:00 13.3 5 Oeste 8 Oeste 0 -- -- 72
2020-11-13 00:00:00 13.1 3 Sur 16 Oeste 0 -- -- 77
2020-11-12 23:00:00 13.4 4 Sudoeste 11 Oeste 0 -- -- 74
2020-11-12 22:00:00 13.8 5 Oeste 9 Oeste 0 -- -- 75
2020-11-12 21:00:00 13.7 3 Oeste 4 Oeste 0 -- -- 76
2020-11-12 20:00:00 13.9 4 Sudoeste 9 Sudeste 0 -- -- 76
2020-11-12 19:00:00 13.7 9 Sudeste 21 Sudeste 0 -- -- 78
2020-11-12 18:00:00 14.8 18 Sudeste 27 Sudeste 0 -- -- 71
2020-11-12 17:00:00 16.9 16 Sudeste 23 Sudeste 0 -- -- 63
2020-11-12 16:00:00 19.3 10 Sur 22 Sudeste 0 -- -- 58
2020-11-12 15:00:00 19.7 9 Sur 18 Sudeste 0 -- -- 59
2020-11-12 14:00:00 19.5 7 Sudeste 13 Sudeste 0 -- -- 58
2020-11-12 13:00:00 18.5 6 Sur 12 Este 0 -- -- 62
2020-11-12 12:00:00 17.9 8 Sudeste 11 Sudeste 0 -- -- 61
2020-11-12 11:00:00 16.2 6 Sur 17 Sudeste 0 -- -- 67
2020-11-12 10:00:00 14.1 9 Sudeste 13 Oeste 0 -- -- 80
2020-11-12 09:00:00 12.4 12 Oeste 19 Oeste 0 -- -- 82
2020-11-12 08:00:00 12.5 5 Sudeste 12 Este 0 -- -- 80
2020-11-12 07:00:00 12.7 7 Este 9 Este 0 -- -- 79
2020-11-12 06:00:00 13.1 3 Este 14 Sudoeste 0 -- -- 74
2020-11-12 05:00:00 12.9 7 Sudoeste 15 Sudeste 0 -- -- 76
2020-11-12 04:00:00 13.5 3 Sur 8 Sudoeste 0 -- -- 69
2020-11-12 03:00:00 13.7 5 Sur 15 Sur 0 -- -- 67
2020-11-12 02:00:00 13.5 6 Este 17 Sur 0 -- -- 68
2020-11-12 01:00:00 13 4 Sur 16 Sur 0 -- -- 67
2020-11-12 00:00:00 13.4 7 Sur 15 Sudeste 0 -- -- 64
2020-11-11 23:00:00 13.5 9 Sudeste 23 Sur 0 -- -- 66
2020-11-11 22:00:00 14.5 5 Sur 14 Sudoeste 0 -- -- 56
2020-11-11 21:00:00 13.9 7 Oeste 11 Oeste 0 -- -- 55
2020-11-11 20:00:00 13.7 6 Oeste 10 Sudoeste 0 -- -- 58
2020-11-11 19:00:00 12.6 3 Sudoeste 10 Sudeste 0 -- -- 72
2020-11-11 18:00:00 13.2 4 Nordeste 19 Sudeste 0 -- -- 68
2020-11-11 17:00:00 14 14 Sudeste 20 Sudeste 0 -- -- 64
2020-11-11 16:00:00 15.5 12 Sudeste 17 Sur 0 -- -- 65
2020-11-11 15:00:00 18.3 5 Sudoeste 12 Sur 0 -- -- 53
2020-11-11 14:00:00 15.6 12 Sudeste 17 Sudeste 0 -- -- 57
2020-11-11 13:00:00 15.6 7 Noroeste 13 Noroeste 0 -- -- 60
2020-11-11 12:00:00 14.6 6 Oeste 13 Sudoeste 0 -- -- 59
2020-11-11 11:00:00 12.9 8 Oeste 10 Oeste 0 -- -- 61
2020-11-11 10:00:00 10.9 5 Sudoeste 12 Oeste 0 -- -- 68
2020-11-11 09:00:00 9.2 4 Sur 10 Sudoeste 0 -- -- 71
2020-11-11 08:00:00 8.4 8 Sudeste 11 Este 0 -- -- 75
2020-11-11 07:00:00 8.4 4 Este 7 Sudeste 0 -- -- 79
2020-11-11 06:00:00 8.5 3 Este 8 Nordeste 0 -- -- 82
2020-11-11 05:00:00 8.9 0 Calma 6 Oeste 0 -- -- 82
2020-11-11 04:00:00 8 4 Sur 9 Este 0 -- -- 94
2020-11-11 03:00:00 8.3 4 Este 9 Sudoeste 0 -- -- 99
2020-11-11 02:00:00 8.4 3 Sudoeste 12 Este 0 -- -- 100
2020-11-11 01:00:00 9.4 0 Calma 5 Este 0 -- -- 99
2020-11-11 00:00:00 10.1 0 Calma 5 Sudoeste 0 -- -- 100
2020-11-10 23:00:00 10 3 Oeste 4 Sudeste 0 -- -- 99
2020-11-10 22:00:00 10.6 3 Sudoeste 8 Oeste 0 -- -- 98
2020-11-10 21:00:00 11 6 Oeste 9 Oeste 0 -- -- 98
2020-11-10 20:00:00 11.5 5 Sudeste 10 Sudeste 0 -- -- 96
2020-11-10 19:00:00 11.9 7 Sudeste 11 Este 0 -- -- 95
2020-11-10 18:00:00 12 6 Este 20 Sudeste 0 -- -- 93
2020-11-10 17:00:00 13.5 14 Sudeste 22 Sudeste 0 -- -- 86
2020-11-10 16:00:00 15.1 10 Sudeste 17 Sudeste 0 -- -- 81
2020-11-10 15:00:00 15.7 11 Sudeste 20 Sudeste 0 -- -- 76
2020-11-10 14:00:00 16.1 6 Sur 14 Sudeste 0 -- -- 75
2020-11-10 13:00:00 15 4 Sur 13 Este 0 -- -- 81
2020-11-10 12:00:00 14.4 6 Sudeste 12 Sudeste 0 -- -- 88
2020-11-10 11:00:00 11.3 8 Sudeste 9 Sudeste 0 -- -- 100
2020-11-10 10:00:00 10.5 3 Sudoeste 4 Sudoeste 0 -- -- 100
2020-11-10 09:00:00 9.5 0 Calma 3 Nordeste 0 -- -- 100
2020-11-10 08:00:00 9 3 Sudoeste 8 Sudeste 0 -- -- 100
2020-11-10 07:00:00 9.5 7 Sudeste 9 Sudeste 0.2 -- -- 100
2020-11-10 06:00:00 10.3 0 Calma 6 Noroeste 0 -- -- 100
2020-11-10 05:00:00 10.4 4 Oeste 5 Oeste 0 -- -- 100
2020-11-10 04:00:00 10.5 0 Calma 5 Sudeste 0 -- -- 100
2020-11-10 03:00:00 10.5 4 Sudeste 5 Sur 0 -- -- 100
2020-11-10 02:00:00 10.4 0 Calma 3 Oeste 0 -- -- 100
2020-11-10 01:00:00 10.5 3 Sudoeste 8 Oeste 0 -- -- 100
2020-11-10 00:00:00 10.5 0 Calma 11 Oeste 0 -- -- 100
2020-11-09 23:00:00 10.6 5 Oeste 6 Oeste 0 -- -- 100
2020-11-09 22:00:00 10.7 4 Este 8 Sudeste 0.2 -- -- 99
2020-11-09 21:00:00 10.9 5 Este 8 Nordeste 2 -- -- 99
2020-11-09 20:00:00 11 3 Sudoeste 12 Sudeste 0.2 -- -- 99
2020-11-09 19:00:00 11.3 11 Sudeste 15 Sudeste 0 -- -- 96
2020-11-09 18:00:00 11.8 8 Sudeste 11 Sudeste 0 -- -- 93
2020-11-09 17:00:00 13 5 Oeste 35 Oeste 2.4 -- -- 89
2020-11-09 16:00:00 14.8 13 Oeste 24 Oeste 0 -- -- 79
2020-11-09 15:00:00 15.7 16 Oeste 29 Oeste 0 -- -- 68
2020-11-09 14:00:00 17.7 14 Oeste 21 Sudoeste 0 -- -- 65
2020-11-09 13:00:00 17.7 4 Noroeste 14 Sudoeste 0 -- -- 55
2020-11-09 12:00:00 18.8 7 Sudeste 13 Sudeste 0 -- -- 51
2020-11-09 11:00:00 15 13 Sudeste 17 Sudeste 0 -- -- 58
2020-11-09 10:00:00 14.1 6 Sudeste 14 Este 0 -- -- 64
2020-11-09 09:00:00 11.9 9 Este 12 Este 0 -- -- 71
2020-11-09 08:00:00 11.8 4 Sudeste 12 Sudeste 0 -- -- 63
2020-11-09 07:00:00 12.9 6 Sudeste 17 Sudeste 0 -- -- 61
2020-11-09 06:00:00 13.2 5 Norte 17 Sudoeste 0 -- -- 58
2020-11-09 05:00:00 14.6 7 Oeste 46 Sudoeste 0 -- -- 53
2020-11-09 04:00:00 14.5 17 Sudoeste 34 Sudoeste 0 -- -- 53
2020-11-09 03:00:00 13.9 10 Sudeste 37 Sudoeste 0 -- -- 62
2020-11-09 02:00:00 13.9 7 Sudeste 42 Oeste 0 -- -- 61
2020-11-09 01:00:00 15.5 9 Sur 40 Sur 0 -- -- 59
2020-11-09 00:00:00 16.2 16 Sudoeste 51 Sudoeste 0 -- -- 52
2020-11-08 23:00:00 15.8 13 Sur 33 Sudoeste 0 -- -- 57
2020-11-08 22:00:00 17.2 27 Oeste 48 Sudoeste 0 -- -- 54
2020-11-08 21:00:00 15.7 12 Sur 23 Sur 0 -- -- 57
2020-11-08 20:00:00 16 14 Sudeste 53 Sur 0 -- -- 60
2020-11-08 19:00:00 16.6 12 Sudoeste 37 Oeste 0 -- -- 55
2020-11-08 18:00:00 17.5 15 Sudoeste 57 Sudeste 0 -- -- 52
2020-11-08 17:00:00 17.6 9 Sudoeste 82 Sudoeste 0 -- -- 51
2020-11-08 16:00:00 17.9 44 Sudoeste 86 Sudoeste 0 -- -- 48
2020-11-08 15:00:00 18.5 36 Sudoeste 84 Sudoeste 0 -- -- 48
2020-11-08 14:00:00 18.4 49 Sudoeste 72 Sudoeste 0 -- -- 51
2020-11-08 13:00:00 20 19 Sudoeste 61 Sudoeste 0 -- -- 56
2020-11-08 12:00:00 18.4 7 Sur 49 Sudoeste 0 -- -- 60
2020-11-08 11:00:00 16.4 4 Sudoeste 14 Sur 0 -- -- 60
2020-11-08 10:00:00 15.3 10 Este 17 Sudeste 0 -- -- 70
2020-11-08 09:00:00 14.7 16 Sur 36 Sudoeste 0 -- -- 66
2020-11-08 08:00:00 14.5 8 Sur 18 Sur 0 -- -- 67
2020-11-08 07:00:00 15.3 8 Sudeste 33 Oeste 0 -- -- 63
2020-11-08 06:00:00 17.3 29 Sudoeste 54 Sudoeste 0 -- -- 55
2020-11-08 05:00:00 17.3 41 Sudoeste 66 Sudoeste 0 -- -- 54
2020-11-08 04:00:00 16 28 Sur 54 Sudoeste 0 -- -- 57
2020-11-08 03:00:00 14.2 13 Sudeste 28 Sudeste 0 -- -- 63
2020-11-08 02:00:00 14.9 13 Este 51 Sudoeste 0 -- -- 62
2020-11-08 01:00:00 16.7 19 Sur 63 Sudoeste 0 -- -- 53
2020-11-08 00:00:00 17 32 Sudoeste 67 Sudoeste 0 -- -- 52
2020-11-07 23:00:00 16.9 29 Sudoeste 57 Sudoeste 0 -- -- 54
2020-11-07 22:00:00 16.1 14 Sudoeste 65 Sudoeste 0 -- -- 57
2020-11-07 21:00:00 15.4 8 Sudeste 35 Oeste 0 -- -- 59
2020-11-07 20:00:00 14.1 5 Este 33 Sudoeste 0 -- -- 71
2020-11-07 19:00:00 14.1 9 Sur 29 Sur 0 -- -- 76
2020-11-07 18:00:00 14.6 15 Sudeste 27 Sur 0 -- -- 79
2020-11-07 17:00:00 17.7 14 Sur 27 Sudoeste 0 -- -- 69
2020-11-07 16:00:00 19.1 3 Nordeste 33 Sudoeste 0 -- -- 48
2020-11-07 15:00:00 19.2 10 Oeste 55 Sudoeste 0 -- -- 59
2020-11-07 14:00:00 17.5 10 Sudoeste 18 Sudoeste 0 -- -- 72
2020-11-07 13:00:00 15.4 7 Noroeste 21 Noroeste 0 -- -- 83
2020-11-07 12:00:00 14.7 13 Noroeste 19 Noroeste 0 -- -- 87
2020-11-07 11:00:00 13.8 6 Sudeste 15 Sur 0 -- -- 88
2020-11-07 10:00:00 12.9 3 Norte 14 Sudoeste 0 -- -- 92
2020-11-07 09:00:00 12.6 3 Noroeste 12 Sudoeste 0 -- -- 93
2020-11-07 08:00:00 12.2 7 Sudeste 17 Sudeste 0 -- -- 96
2020-11-07 07:00:00 12.3 5 Norte 12 Oeste 0 -- -- 95
2020-11-07 06:00:00 12.2 3 Sudoeste 18 Sudoeste 0 -- -- 97
2020-11-07 05:00:00 12 4 Noroeste 10 Sudoeste 0 -- -- 97
2020-11-07 04:00:00 12.3 4 Sur 16 Sudoeste 0 -- -- 96
2020-11-07 03:00:00 12.1 4 Sudoeste 16 Nordeste 0 -- -- 96
2020-11-07 02:00:00 12.8 5 Este 27 Sudoeste 1.4 -- -- 91
2020-11-07 01:00:00 14.8 4 Noroeste 20 Sudoeste 0 -- -- 75
2020-11-07 00:00:00 14.4 10 Sur 46 Oeste 0 -- -- 78
2020-11-06 23:00:00 13.2 10 Este 97 Sudoeste 3 -- -- 90
2020-11-06 22:00:00 17 10 Sur 27 Este 0 -- -- 73
2020-11-06 21:00:00 16.9 17 Sudeste 33 Este 0 -- -- 74
2020-11-06 20:00:00 17.2 19 Sudeste 37 Este 0 -- -- 72
2020-11-06 19:00:00 17.7 12 Sudeste 42 Este 0 -- -- 68
2020-11-06 18:00:00 18.1 15 Sudeste 35 Este 0 -- -- 66
2020-11-06 17:00:00 18.3 15 Este 28 Sudeste 0 -- -- 67
2020-11-06 16:00:00 18.8 6 Sudeste 49 Este 0 -- -- 64
2020-11-06 15:00:00 19.1 21 Este 41 Este 0 -- -- 66
2020-11-06 14:00:00 20 15 Sudeste 37 Este 0 -- -- 61
2020-11-06 13:00:00 19.7 10 Este 26 Este 0 -- -- 65
2020-11-06 12:00:00 17.5 12 Este 25 Nordeste 0 -- -- 73
2020-11-06 11:00:00 15.2 10 Sudeste 32 Este 0 -- -- 75
2020-11-06 10:00:00 14.5 12 Sur 22 Este 0 -- -- 76
2020-11-06 09:00:00 14 6 Sur 15 Sudoeste 0 -- -- 78
2020-11-06 08:00:00 13.1 12 Sudeste 24 Sudeste 0.2 -- -- 85
2020-11-06 07:00:00 12.8 10 Sudeste 26 Este 0.2 -- -- 87
2020-11-06 06:00:00 12.7 12 Este 20 Este 0 -- -- 82
2020-11-06 05:00:00 12.6 7 Sur 21 Sudeste 0 -- -- 80
2020-11-06 04:00:00 12.5 8 Sudeste 17 Este 0 -- -- 80
2020-11-06 03:00:00 13.2 10 Sudeste 15 Sudeste 0 -- -- 75
2020-11-06 02:00:00 13.5 7 Sudeste 21 Este 0 -- -- 76
2020-11-06 01:00:00 12.6 4 Oeste 28 Este 0 -- -- 78
2020-11-06 00:00:00 11.5 5 Sudoeste 14 Este 0 -- -- 83
2020-11-05 23:00:00 10 6 Sudeste 18 Este 0 -- -- 92
2020-11-05 22:00:00 10 9 Sudeste 21 Sur 0 -- -- 92
2020-11-05 21:00:00 9.6 2 Este 14 Sudoeste 0 -- -- 93
2020-11-05 20:00:00 9.8 5 Sudeste 14 Este 0 -- -- 92
2020-11-05 19:00:00 10.2 12 Sudeste 18 Sudeste 0 -- -- 91
2020-11-05 18:00:00 10.7 13 Sudeste 22 Sudeste 0 -- -- 88
2020-11-05 17:00:00 11.1 10 Sudeste 20 Sudeste 0 -- -- 87
2020-11-05 16:00:00 11.3 6 Sudeste 12 Este 0 -- -- 86
2020-11-05 15:00:00 10.7 4 Sudoeste 9 Oeste 0 -- -- 84
2020-11-05 14:00:00 10.9 3 Nordeste 13 Sur 0 -- -- 84
2020-11-05 13:00:00 11.3 5 Sudeste 14 Sudoeste 0 -- -- 82
2020-11-05 12:00:00 10.8 5 Sudeste 18 Sudeste 0 -- -- 82
2020-11-05 11:00:00 8.6 12 Sudeste 21 Sudeste 0 -- -- 84
2020-11-05 10:00:00 8.9 10 Sudeste 31 Sudeste 0 -- -- 86
2020-11-05 09:00:00 7.4 22 Sudeste 44 Sudeste 0 -- -- 87
2020-11-05 08:00:00 7 19 Sudeste 31 Sudeste 0 -- -- 87
2020-11-05 07:00:00 6.7 18 Sudeste 32 Este 0 -- -- 88
2020-11-05 06:00:00 6.5 15 Sudeste 42 Este 0 -- -- 88
2020-11-05 05:00:00 6.2 13 Este 30 Este 0 -- -- 90
2020-11-05 04:00:00 6.7 13 Sudeste 35 Este 0 -- -- 86
2020-11-05 03:00:00 6.8 10 Sudeste 31 Sudeste 0 -- -- 84
2020-11-05 02:00:00 6.8 9 Este 42 Este 0 -- -- 86
2020-11-05 01:00:00 7.1 26 Este 52 Este 0 -- -- 87
2020-11-05 00:00:00 7.1 22 Este 41 Este 0 -- -- 88
2020-11-04 23:00:00 6.8 16 Este 39 Sudeste 0 -- -- 93
2020-11-04 22:00:00 6.5 19 Sudeste 39 Sudeste 0.2 -- -- 93
2020-11-04 21:00:00 6.7 15 Sudeste 39 Este 0 -- -- 90
2020-11-04 20:00:00 6.6 21 Este 45 Este 0 -- -- 94
2020-11-04 19:00:00 6.7 18 Sudeste 39 Este 0 -- -- 93
2020-11-04 18:00:00 7.4 28 Este 48 Sudeste 0 -- -- 93
2020-11-04 17:00:00 8 14 Este 39 Este 0 -- -- 90
2020-11-04 16:00:00 8.3 18 Este 32 Este 0 -- -- 91
2020-11-04 15:00:00 8.7 15 Este 39 Este 0.2 -- -- 92
2020-11-04 14:00:00 9.4 32 Este 52 Este 0 -- -- 89
2020-11-04 13:00:00 9.7 11 Este 20 Este 0 -- -- 92
2020-11-04 12:00:00 9.3 6 Sudeste 15 Sudeste 0 -- -- 100
2020-11-04 11:00:00 8.1 4 Sudeste 8 Sudeste 0 -- -- 100
2020-11-04 10:00:00 6.9 3 Norte 9 Sudeste 0 -- -- 100
2020-11-04 09:00:00 5.8 5 Este 9 Nordeste 0.2 -- -- 100
2020-11-04 08:00:00 5.3 6 Sudeste 7 Sudeste 0.2 -- -- 100
2020-11-04 07:00:00 5.3 5 Sur 8 Sudeste 0.2 -- -- 100
2020-11-04 06:00:00 5.4 0 Calma 8 Sur 0 -- -- 99
2020-11-04 05:00:00 5.5 3 Este 5 Norte 0 -- -- 98
2020-11-04 04:00:00 5.5 2 Noroeste 8 Oeste 0.2 -- -- 97
2020-11-04 03:00:00 5.5 9 Oeste 12 Oeste 0 -- -- 98
2020-11-04 02:00:00 5.6 4 Sudoeste 11 Nordeste 0 -- -- 99
2020-11-04 01:00:00 5.8 6 Nordeste 16 Sudoeste 0.4 -- -- 99
2020-11-04 00:00:00 5.7 0 Calma 6 Oeste 0.2 -- -- 100
2020-11-03 23:00:00 5.8 3 Nordeste 15 Sudoeste 0 -- -- 99
2020-11-03 22:00:00 6.6 14 Sudoeste 21 Sudoeste 0.4 -- -- 98
2020-11-03 21:00:00 6.7 3 Oeste 8 Sudoeste 0 -- -- 99
2020-11-03 20:00:00 7.1 9 Sudoeste 15 Nordeste 1 -- -- 98
2020-11-03 19:00:00 7.3 5 Nordeste 13 Sudoeste 0 -- -- 98
2020-11-03 18:00:00 8 2 Oeste 7 Oeste 1 -- -- 98
2020-11-03 17:00:00 8.6 2 Sur 8 Oeste 0.2 -- -- 97
2020-11-03 16:00:00 8.5 5 Noroeste 17 Oeste 0 -- -- 95
2020-11-03 15:00:00 8.1 12 Oeste 20 Oeste 0.4 -- -- 99
2020-11-03 14:00:00 8.4 11 Oeste 25 Sudoeste 0.8 -- -- 99
2020-11-03 13:00:00 8.3 20 Oeste 31 Oeste 1 -- -- 100
2020-11-03 12:00:00 9.2 17 Noroeste 28 Norte 0.4 -- -- 99
2020-11-03 11:00:00 8.6 16 Oeste 23 Noroeste 0.8 -- -- 100
2020-11-03 10:00:00 9 9 Noroeste 25 Noroeste 0 -- -- 98
2020-11-03 09:00:00 8.3 15 Noroeste 33 Oeste 0 -- -- 90
2020-11-03 08:00:00 8.5 4 Oeste 9 Sudoeste 0 -- -- 77
2020-11-03 07:00:00 8 3 Norte 10 Noroeste 0 -- -- 86
2020-11-03 06:00:00 8.2 7 Noroeste 12 Noroeste 0 -- -- 86
2020-11-03 05:00:00 9 8 Noroeste 15 Norte 0 -- -- 95
2020-11-03 04:00:00 9.2 12 Noroeste 18 Noroeste 0 -- -- 100
2020-11-03 03:00:00 9.1 9 Noroeste 21 Oeste 0.2 -- -- 100
2020-11-03 02:00:00 9.2 7 Noroeste 13 Noroeste 0.2 -- -- 100
2020-11-03 01:00:00 9.2 12 Noroeste 17 Noroeste 0 -- -- 100
2020-11-03 00:00:00 9.4 7 Noroeste 11 Oeste 0.2 -- -- 100
2020-11-02 23:00:00 9.3 7 Oeste 19 Oeste 0 -- -- 100
2020-11-02 22:00:00 9.3 6 Oeste 15 Noroeste 1 -- -- 100
2020-11-02 21:00:00 9.4 13 Noroeste 21 Oeste 1.4 -- -- 100
2020-11-02 20:00:00 9.8 12 Oeste 20 Oeste 0.8 -- -- 100
2020-11-02 19:00:00 10.5 6 Oeste 13 Noroeste 0.2 -- -- 100
2020-11-02 18:00:00 10.8 6 Noroeste 15 Norte 0 -- -- 100
2020-11-02 17:00:00 10.9 13 Noroeste 25 Noroeste 0 -- -- 100
2020-11-02 16:00:00 11.2 14 Noroeste 36 Norte 0.2 -- -- 99
2020-11-02 15:00:00 11.7 24 Noroeste 46 Norte 0 -- -- 97
2020-11-02 14:00:00 13.4 24 Noroeste 36 Norte 0.2 -- -- 95
2020-11-02 13:00:00 15.4 15 Norte 50 Noroeste 0 -- -- 90
2020-11-02 12:00:00 19 24 Noroeste 42 Oeste 0 -- -- 69
2020-11-02 11:00:00 18.9 7 Sudeste 14 Sudeste 0 -- -- 69
2020-11-02 10:00:00 15.5 4 Sudeste 17 Sudeste 0 -- -- 82
2020-11-02 09:00:00 13.3 6 Este 14 Sudeste 0 -- -- 89
2020-11-02 08:00:00 13.6 9 Sudeste 13 Sudeste 0 -- -- 87
2020-11-02 07:00:00 13.7 0 Calma 5 Sudeste 0 -- -- 87
2020-11-02 06:00:00 14.2 2 Sudeste 5 Sudoeste 0 -- -- 84
2020-11-02 05:00:00 14.7 0 Calma 5 Oeste 0 -- -- 82
2020-11-02 04:00:00 14.8 2 Sur 8 Sudoeste 0 -- -- 83
2020-11-02 03:00:00 15.4 6 Sudeste 9 Oeste 0 -- -- 81
2020-11-02 02:00:00 16.2 8 Oeste 11 Oeste 0 -- -- 76
2020-11-02 01:00:00 16.8 8 Oeste 10 Oeste 0 -- -- 75
2020-11-02 00:00:00 17.2 0 Calma 9 Oeste 0 -- -- 75
2020-11-01 23:00:00 16.7 4 Sudoeste 12 Oeste 0 -- -- 78
2020-11-01 22:00:00 16.6 4 Sur 17 Este 0 -- -- 81
2020-11-01 21:00:00 17.5 0 Calma 9 Oeste 0 -- -- 75
2020-11-01 20:00:00 18.1 3 Oeste 9 Oeste 0 -- -- 73
2020-11-01 19:00:00 18.7 9 Oeste 14 Oeste 0 -- -- 70
2020-11-01 18:00:00 20.1 5 Sudoeste 9 Oeste 0 -- -- 70
2020-11-01 17:00:00 21.3 6 Oeste 10 Oeste 0 -- -- 68
2020-11-01 16:00:00 21.9 4 Oeste 9 Este 0 -- -- 64
2020-11-01 15:00:00 22.6 9 Este 13 Este 0 -- -- 64
2020-11-01 14:00:00 23.1 2 Sudoeste 24 Sudeste 0 -- -- 62
2020-11-01 13:00:00 20.8 13 Sudeste 21 Sudeste 0 -- -- 67
2020-11-01 12:00:00 18.9 5 Sudoeste 17 Sudeste 0 -- -- 67
2020-11-01 11:00:00 18.3 7 Sudeste 17 Este 0 -- -- 70
2020-11-01 10:00:00 18.1 5 Sudeste 15 Sudeste 0 -- -- 71
2020-11-01 09:00:00 17.9 6 Sur 21 Sudeste 0 -- -- 68
2020-11-01 08:00:00 17.1 8 Este 17 Este 0 -- -- 69
2020-11-01 07:00:00 17.5 6 Sudeste 18 Sudeste 0 -- -- 66
2020-11-01 06:00:00 16.8 9 Este 17 Este 0 -- -- 70
2020-11-01 05:00:00 17.4 5 Este 13 Sudeste 0 -- -- 66
2020-11-01 04:00:00 17.7 2 Este 6 Sudoeste 0 -- -- 62
2020-11-01 03:00:00 17.2 5 Sudeste 21 Sudeste 0 -- -- 65
2020-11-01 02:00:00 16.7 8 Sudeste 18 Sudeste 0 -- -- 66
2020-11-01 01:00:00 16 13 Sudeste 20 Este 0 -- -- 70
2020-11-01 00:00:00 16.7 4 Este 15 Sudeste 0 -- -- 63
2020-10-31 23:00:00 17.4 4 Sudeste 15 Sur 0 -- -- 62
2020-10-31 22:00:00 16.9 5 Sur 19 Sudeste 0 -- -- 64
2020-10-31 21:00:00 16.3 10 Sudeste 22 Sudeste 0 -- -- 67
2020-10-31 20:00:00 16.5 3 Sur 10 Sudeste 0 -- -- 66
2020-10-31 19:00:00 17.8 3 Este 10 Oeste 0 -- -- 61
2020-10-31 18:00:00 18.9 6 Oeste 11 Sudeste 0 -- -- 56
2020-10-31 17:00:00 21.1 6 Sudeste 12 Sudeste 0 -- -- 53
2020-10-31 16:00:00 22.6 6 Oeste 14 Sudeste 0 -- -- 48
2020-10-31 15:00:00 22.1 5 Sur 16 Sudeste 0 -- -- 51
2020-10-31 14:00:00 22.1 9 Oeste 12 Sudoeste 0 -- -- 52
2020-10-31 13:00:00 20.4 2 Sudeste 11 Sudoeste 0 -- -- 50
2020-10-31 12:00:00 17.2 5 Oeste 23 Sudeste 0 -- -- 64
2020-10-31 11:00:00 17.5 5 Sur 12 Sudoeste 0 -- -- 60
2020-10-31 10:00:00 15.8 4 Nordeste 17 Este 0 -- -- 61
2020-10-31 09:00:00 13.2 14 Este 26 Sudeste 0 -- -- 70
2020-10-31 08:00:00 12.7 10 Este 24 Sudeste 0 -- -- 65
2020-10-31 07:00:00 13.6 5 Sudoeste 15 Oeste 0 -- -- 63
2020-10-31 06:00:00 11.9 6 Oeste 15 Sudoeste 0 -- -- 70
2020-10-31 05:00:00 10.5 5 Sudeste 13 Sudeste 0 -- -- 78
2020-10-31 04:00:00 10 6 Sudeste 13 Sudoeste 0 -- -- 82
2020-10-31 03:00:00 10.3 4 Sudoeste 11 Nordeste 0 -- -- 80
2020-10-31 02:00:00 10.5 3 Noroeste 14 Sudoeste 0 -- -- 79
2020-10-31 01:00:00 10.3 2 Sudoeste 9 Oeste 0 -- -- 81
2020-10-31 00:00:00 10.3 3 Sudoeste 11 Sudoeste 0 -- -- 82
2020-10-30 23:00:00 10 5 Sur 12 Sudeste 0 -- -- 84
2020-10-30 22:00:00 11.3 4 Este 7 Este 0 -- -- 79
2020-10-30 21:00:00 11.2 3 Este 14 Sudeste 0 -- -- 80
2020-10-30 20:00:00 12.1 10 Sudeste 14 Sudeste 0 -- -- 76
2020-10-30 19:00:00 13.3 11 Sudeste 19 Sudeste 0 -- -- 69
2020-10-30 18:00:00 15.4 8 Sudeste 11 Sur 0 -- -- 63
2020-10-30 17:00:00 17.4 9 Sudeste 16 Sudeste 0 -- -- 61
2020-10-30 16:00:00 18.2 10 Sudeste 14 Sudeste 0 -- -- 62
2020-10-30 15:00:00 18.8 5 Sudeste 10 Sudeste 0 -- -- 61
2020-10-30 14:00:00 18 6 Sudeste 11 Sur 0 -- -- 66
2020-10-30 13:00:00 16.4 7 Sur 10 Sur 0 -- -- 70
2020-10-30 12:00:00 14.6 3 Sur 6 Sudeste 0 -- -- 83
2020-10-30 11:00:00 11.8 3 Sudoeste 8 Sudeste 0 -- -- 100
2020-10-30 10:00:00 9 4 Sur 10 Sudeste 0 -- -- 100
2020-10-30 09:00:00 7.4 6 Sudeste 8 Sudeste 0 -- -- 100
2020-10-30 08:00:00 7.1 0 Calma 2 Este 0 -- -- 100
2020-10-30 07:00:00 7.2 0 Calma 3 Sudeste 0.2 -- -- 100
2020-10-30 06:00:00 7.7 0 Calma 2 Sudeste 0 -- -- 100
2020-10-30 05:00:00 7.7 0 Calma 4 Este 0 -- -- 100
2020-10-30 04:00:00 7.9 3 Este 4 Este 0 -- -- 100
2020-10-30 03:00:00 8.3 0 Calma 4 Sudoeste 0 -- -- 100
2020-10-30 02:00:00 8.2 3 Sudeste 8 Este 0 -- -- 99
2020-10-30 01:00:00 8.8 0 Calma 4 Oeste 0 -- -- 99
2020-10-30 00:00:00 9.1 0 Calma 3 Oeste 0 -- -- 98
2020-10-29 23:00:00 9.6 0 Calma 3 Sur 0 -- -- 97
2020-10-29 22:00:00 9.8 2 Sudoeste 5 Sudeste 0 -- -- 97
2020-10-29 21:00:00 10 3 Sudeste 10 Sudeste 0 -- -- 95
2020-10-29 20:00:00 10.3 9 Sudeste 18 Este 0 -- -- 93
2020-10-29 19:00:00 11 10 Este 16 Este 0 -- -- 89
2020-10-29 18:00:00 12.7 9 Sudeste 19 Este 0 -- -- 82
2020-10-29 17:00:00 15.5 8 Sudoeste 16 Sudoeste 0 -- -- 74
2020-10-29 16:00:00 17.4 8 Sudoeste 14 Oeste 0 -- -- 68
2020-10-29 15:00:00 18.2 5 Sudeste 10 Sudeste 0 -- -- 66
2020-10-29 14:00:00 18 5 Sur 11 Sudeste 0 -- -- 65
2020-10-29 13:00:00 17.4 7 Sudeste 13 Sudeste 0 -- -- 69
2020-10-29 12:00:00 16.3 5 Sudeste 18 Este 0 -- -- 72
2020-10-29 11:00:00 14 6 Sudeste 12 Sudeste 0 -- -- 82
2020-10-29 10:00:00 10.7 3 Sudeste 6 Sudeste 0 -- -- 95
2020-10-29 09:00:00 8.9 6 Sudoeste 9 Sudoeste 0 -- -- 97
2020-10-29 08:00:00 8.2 8 Sudoeste 14 Sudeste 0 -- -- 97
2020-10-29 07:00:00 9.3 3 Este 20 Sudoeste 0 -- -- 93
2020-10-29 06:00:00 8.6 8 Sudoeste 22 Sudeste 0 -- -- 94
2020-10-29 05:00:00 9.6 6 Este 8 Este 0 -- -- 94
2020-10-29 04:00:00 10 0 Calma 5 Este 0 -- -- 95
2020-10-29 03:00:00 9.7 4 Nordeste 8 Sur 0 -- -- 96
2020-10-29 02:00:00 9.9 4 Nordeste 8 Sudoeste 0 -- -- 96
2020-10-29 01:00:00 9.6 3 Nordeste 9 Este 0 -- -- 95
2020-10-29 00:00:00 10.4 3 Sudoeste 6 Nordeste 0 -- -- 94
2020-10-28 23:00:00 11 2 Este 5 Nordeste 0 -- -- 92
2020-10-28 22:00:00 11.7 4 Este 7 Este 0 -- -- 88
2020-10-28 21:00:00 12.3 0 Calma 17 Este 0 -- -- 84
2020-10-28 20:00:00 12.6 8 Sudeste 14 Este 0 -- -- 85
2020-10-28 19:00:00 13.1 7 Este 13 Este 0 -- -- 85
2020-10-28 18:00:00 14 0 Calma 10 Sudeste 0 -- -- 79
2020-10-28 17:00:00 15.1 3 Nordeste 13 Noroeste 0 -- -- 79
2020-10-28 16:00:00 15.4 8 Noroeste 10 Noroeste 0 -- -- 73
2020-10-28 15:00:00 16.2 5 Oeste 23 Sudoeste 0 -- -- 69
2020-10-28 14:00:00 14.1 16 Oeste 25 Oeste 0 -- -- 74
2020-10-28 13:00:00 13.6 14 Oeste 22 Oeste 0 -- -- 79
2020-10-28 12:00:00 13.2 8 Oeste 19 Noroeste 0 -- -- 87
2020-10-28 11:00:00 12.9 3 Noroeste 5 Oeste 0 -- -- 100
2020-10-28 10:00:00 11.8 3 Oeste 5 Sudoeste 0 -- -- 100
2020-10-28 09:00:00 11.4 0 Calma 6 Sudeste 0 -- -- 100
2020-10-28 08:00:00 11.1 3 Este 13 Sudeste 0 -- -- 100
2020-10-28 07:00:00 11.3 4 Sudeste 9 Sudeste 0 -- -- 100
2020-10-28 06:00:00 11.4 0 Calma 5 Sur 0.2 -- -- 100
2020-10-28 05:00:00 11.4 3 Sudeste 5 Oeste 0 -- -- 100
2020-10-28 04:00:00 11.4 4 Oeste 14 Noroeste 0 -- -- 100
2020-10-28 03:00:00 11.5 11 Noroeste 17 Oeste 0.2 -- -- 100
2020-10-28 02:00:00 11.9 10 Noroeste 15 Oeste 0 -- -- 99
2020-10-28 01:00:00 12.2 9 Oeste 14 Oeste 0 -- -- 98
2020-10-28 00:00:00 12.7 8 Oeste 11 Oeste 0 -- -- 98